Ridgeville, Ohio
Current Conditions -  °F | °C
As of 11:53 PM on Friday 28 Nov 2014 (Local Time) from KLPR Reporting Station
Overcast Overcast  
Wind Chill: 18°   Ceiling: 7000
Heat Index: 28°   Visibility: 10mi
Dew Point: 20°   Wind: 12mph
Humidity: 72%   Direction: 180°S
Pressure: 30.12"   Gusts: NA
Location:  41.3603°N, 82.1314°W
Report Text: KLPR 290453Z AUTO 18010KT 10SM OVC070 M02/M07 A3012 RMK AO2 SLP209 T10221067 410221100 TSNO
Loading
Personal Weather Stations






























Interactive Weather Map New forecast layout! Learn more

10-Day Weather Forecast

Advertisements
Track Severe Weather on mobile